CheckWX is a tool to help pilots better visualize weather data.  It is not intended as a substitute for an official pre-flight weather briefing.

08:44:57 UTC

KMLS TAF
Frank Wiley Field Airport
Miles City, Montana, USA
KMLS 220520Z 2206/2306 VRB05KT P6SM BKN120 FM220800 23007KT P6SM BKN080 WS020/28030KT FM221400 28010KT P6SM VCSH BKN060 WS020/30035KT FM222100 29011G18KT P6SM FEW060 BKN090 FM230200 27009KT P6SM SCT090

Jan-22@
06:00 UTC

Jan-22 @ 06:00 UTC

Jan-22@
08:00 UTC

Jan-22 @ 08:00 UTC

KMLS 220520Z 2206/2306 VRB05KT P6SM BKN120

Expired

Wind
  • Variable at 5 KTS
Cloud Levels
  • Broken at 12,000' AGL

Jan-22@
08:00 UTC

Jan-22 @ 08:00 UTC

Jan-22@
14:00 UTC

Jan-22 @ 14:00 UTC

FM220800 23007KT P6SM BKN080 WS020/28030KT

From

From Standard forecast or significant change

Wind
  • 230° at 7 KTS
Cloud Levels
  • Broken at 8,000' AGL

Jan-22@
14:00 UTC

Jan-22 @ 14:00 UTC

Jan-22@
21:00 UTC

Jan-22 @ 21:00 UTC

FM221400 28010KT P6SM VCSH BKN060 WS020/30035KT

From

From Standard forecast or significant change

Wind
  • 280° at 10 KTS
Cloud Levels
  • Broken at 6,000' AGL

Jan-22@
21:00 UTC

Jan-22 @ 21:00 UTC

Jan-23@
02:00 UTC

Jan-23 @ 02:00 UTC

FM222100 29011G18KT P6SM FEW060 BKN090

From

From Standard forecast or significant change

Wind
  • 290° at 11 KTS
  • {Gusting to 18 KTS
Cloud Levels
  • Few at 6,000' AGL
  • Broken at 9,000' AGL

Jan-23@
02:00 UTC

Jan-23 @ 02:00 UTC

Jan-23@
06:00 UTC

Jan-23 @ 06:00 UTC

FM230200 27009KT P6SM SCT090

From

From Standard forecast or significant change

Wind
  • 270° at 9 KTS
Cloud Levels
  • Scattered at 9,000' AGL